Terminal Aerodrome Forecast
Issued by NWS Mt. Holly, NJ

Home | Current Version | Previous Version | Text Only | Print | Product List | Glossary On
Versions: 1 2 3 4 5 6 7 8 9 10 11 12 13 14
250
FTUS41 KPHI 250645 AAA
TAFILG
TAF AMD
KILG 250645Z 2507/2606 08012G19KT 5SM -RA BR BKN005 OVC015
      TEMPO 2507/2510 2SM RA BR
     FM251000 07011G19KT 2SM RA BR OVC008
     FM251500 08005KT P6SM OVC006
     FM252100 29004KT P6SM OVC013 PROB30 2521/2524 5SM -SHRA
     FM260500 32006KT P6SM BKN035=

USA.gov is the U.S. government's official web portal to all federal, state and local government web resources and services.